sensor_id;sensor_type;location;lat;lon;timestamp;temperature;humidity
9209;DHT22;4639;48.862;9.188;2023-04-24T00:01:47;12.20;99.90
9209;DHT22;4639;48.862;9.188;2023-04-24T00:04:13;12.20;99.90
9209;DHT22;4639;48.862;9.188;2023-04-24T00:06:42;12.20;99.90
9209;DHT22;4639;48.862;9.188;2023-04-24T00:09:08;12.20;99.90
9209;DHT22;4639;48.862;9.188;2023-04-24T00:11:35;12.20;99.90
9209;DHT22;4639;48.862;9.188;2023-04-24T00:14:01;12.20;99.90
9209;DHT22;4639;48.862;9.188;2023-04-24T00:16:27;12.30;99.90
9209;DHT22;4639;48.862;9.188;2023-04-24T00:18:53;12.30;99.90
9209;DHT22;4639;48.862;9.188;2023-04-24T00:21:18;12.30;99.90
9209;DHT22;4639;48.862;9.188;2023-04-24T00:23:44;12.30;99.90
9209;DHT22;4639;48.862;9.188;2023-04-24T00:26:11;12.40;99.90
9209;DHT22;4639;48.862;9.188;2023-04-24T00:28:36;12.40;99.90
9209;DHT22;4639;48.862;9.188;2023-04-24T00:31:02;12.40;99.90
9209;DHT22;4639;48.862;9.188;2023-04-24T00:33:27;12.40;99.90
9209;DHT22;4639;48.862;9.188;2023-04-24T00:35:53;12.40;99.90
9209;DHT22;4639;48.862;9.188;2023-04-24T00:38:18;12.40;99.90
9209;DHT22;4639;48.862;9.188;2023-04-24T00:40:44;12.40;99.90
9209;DHT22;4639;48.862;9.188;2023-04-24T00:43:10;12.50;99.90
9209;DHT22;4639;48.862;9.188;2023-04-24T00:45:37;12.40;99.90
9209;DHT22;4639;48.862;9.188;2023-04-24T00:48:02;12.50;99.90
9209;DHT22;4639;48.862;9.188;2023-04-24T00:50:29;12.40;99.90
9209;DHT22;4639;48.862;9.188;2023-04-24T00:52:55;12.50;99.90
9209;DHT22;4639;48.862;9.188;2023-04-24T00:55:21;12.50;99.90
9209;DHT22;4639;48.862;9.188;2023-04-24T00:57:47;12.50;99.90
9209;DHT22;4639;48.862;9.188;2023-04-24T01:00:14;12.60;99.90
9209;DHT22;4639;48.862;9.188;2023-04-24T01:02:41;12.60;99.90
9209;DHT22;4639;48.862;9.188;2023-04-24T01:05:11;12.60;99.90
9209;DHT22;4639;48.862;9.188;2023-04-24T01:07:38;12.50;99.90
9209;DHT22;4639;48.862;9.188;2023-04-24T01:10:04;12.50;99.90
9209;DHT22;4639;48.862;9.188;2023-04-24T01:12:30;12.50;99.90
9209;DHT22;4639;48.862;9.188;2023-04-24T01:14:56;12.50;99.90
9209;DHT22;4639;48.862;9.188;2023-04-24T01:17:22;12.50;99.90
9209;DHT22;4639;48.862;9.188;2023-04-24T01:19:47;12.60;99.90
9209;DHT22;4639;48.862;9.188;2023-04-24T01:22:14;12.60;99.90
9209;DHT22;4639;48.862;9.188;2023-04-24T01:24:40;12.70;99.90
9209;DHT22;4639;48.862;9.188;2023-04-24T01:27:07;12.70;99.90
9209;DHT22;4639;48.862;9.188;2023-04-24T01:29:33;12.70;99.90
9209;DHT22;4639;48.862;9.188;2023-04-24T01:31:59;12.70;99.90
9209;DHT22;4639;48.862;9.188;2023-04-24T01:34:26;12.60;99.90
9209;DHT22;4639;48.862;9.188;2023-04-24T01:36:52;12.60;99.90
9209;DHT22;4639;48.862;9.188;2023-04-24T01:39:17;12.50;99.90
9209;DHT22;4639;48.862;9.188;2023-04-24T01:41:43;12.50;99.90
9209;DHT22;4639;48.862;9.188;2023-04-24T01:44:09;12.50;99.90
9209;DHT22;4639;48.862;9.188;2023-04-24T01:46:35;12.50;99.90
9209;DHT22;4639;48.862;9.188;2023-04-24T01:49:01;12.40;99.90
9209;DHT22;4639;48.862;9.188;2023-04-24T01:51:27;12.40;99.90
9209;DHT22;4639;48.862;9.188;2023-04-24T01:53:53;12.40;99.90
9209;DHT22;4639;48.862;9.188;2023-04-24T01:56:20;12.30;99.90
9209;DHT22;4639;48.862;9.188;2023-04-24T01:58:46;12.40;99.90
9209;DHT22;4639;48.862;9.188;2023-04-24T02:01:18;12.40;99.90
9209;DHT22;4639;48.862;9.188;2023-04-24T02:03:44;12.40;99.90
9209;DHT22;4639;48.862;9.188;2023-04-24T02:06:09;12.40;99.90
9209;DHT22;4639;48.862;9.188;2023-04-24T02:08:35;12.30;99.90
9209;DHT22;4639;48.862;9.188;2023-04-24T02:11:00;12.30;99.90
9209;DHT22;4639;48.862;9.188;2023-04-24T02:13:27;12.30;99.90
9209;DHT22;4639;48.862;9.188;2023-04-24T02:15:53;12.30;99.90
9209;DHT22;4639;48.862;9.188;2023-04-24T02:18:18;12.30;99.90
9209;DHT22;4639;48.862;9.188;2023-04-24T02:20:45;12.30;99.90
9209;DHT22;4639;48.862;9.188;2023-04-24T02:23:10;12.20;99.90
9209;DHT22;4639;48.862;9.188;2023-04-24T02:25:36;12.20;99.90
9209;DHT22;4639;48.862;9.188;2023-04-24T02:28:02;12.30;99.90
9209;DHT22;4639;48.862;9.188;2023-04-24T02:30:28;12.30;99.90
9209;DHT22;4639;48.862;9.188;2023-04-24T02:32:54;12.20;99.90
9209;DHT22;4639;48.862;9.188;2023-04-24T02:35:20;12.20;99.90
9209;DHT22;4639;48.862;9.188;2023-04-24T02:37:46;12.20;99.90
9209;DHT22;4639;48.862;9.188;2023-04-24T02:40:11;12.20;99.90
9209;DHT22;4639;48.862;9.188;2023-04-24T02:42:37;12.10;99.90
9209;DHT22;4639;48.862;9.188;2023-04-24T02:45:03;12.10;99.90
9209;DHT22;4639;48.862;9.188;2023-04-24T02:47:28;12.20;99.90
9209;DHT22;4639;48.862;9.188;2023-04-24T02:49:54;12.10;99.90
9209;DHT22;4639;48.862;9.188;2023-04-24T02:52:20;12.10;99.90
9209;DHT22;4639;48.862;9.188;2023-04-24T02:54:45;12.10;99.90
9209;DHT22;4639;48.862;9.188;2023-04-24T02:57:11;12.10;99.90
9209;DHT22;4639;48.862;9.188;2023-04-24T02:59:37;12.10;99.90
9209;DHT22;4639;48.862;9.188;2023-04-24T03:02:02;12.10;99.90
9209;DHT22;4639;48.862;9.188;2023-04-24T03:04:28;12.00;99.90
9209;DHT22;4639;48.862;9.188;2023-04-24T03:06:54;12.00;99.90
9209;DHT22;4639;48.862;9.188;2023-04-24T03:09:20;11.90;99.90
9209;DHT22;4639;48.862;9.188;2023-04-24T03:11:46;11.90;99.90
9209;DHT22;4639;48.862;9.188;2023-04-24T03:14:12;12.00;99.90
9209;DHT22;4639;48.862;9.188;2023-04-24T03:16:37;12.00;99.90
9209;DHT22;4639;48.862;9.188;2023-04-24T03:19:03;12.00;99.90
9209;DHT22;4639;48.862;9.188;2023-04-24T03:21:28;11.90;99.90
9209;DHT22;4639;48.862;9.188;2023-04-24T03:23:54;11.90;99.90
9209;DHT22;4639;48.862;9.188;2023-04-24T03:26:20;11.90;99.90
9209;DHT22;4639;48.862;9.188;2023-04-24T03:28:45;11.90;99.90
9209;DHT22;4639;48.862;9.188;2023-04-24T03:31:11;11.80;99.90
9209;DHT22;4639;48.862;9.188;2023-04-24T03:33:36;11.80;99.90
9209;DHT22;4639;48.862;9.188;2023-04-24T03:36:02;11.80;99.90
9209;DHT22;4639;48.862;9.188;2023-04-24T03:38:28;11.80;99.90
9209;DHT22;4639;48.862;9.188;2023-04-24T03:40:53;11.70;99.90
9209;DHT22;4639;48.862;9.188;2023-04-24T03:43:19;11.70;99.90
9209;DHT22;4639;48.862;9.188;2023-04-24T03:45:45;11.60;99.90
9209;DHT22;4639;48.862;9.188;2023-04-24T03:48:10;11.60;99.90
9209;DHT22;4639;48.862;9.188;2023-04-24T03:50:36;11.50;99.90
9209;DHT22;4639;48.862;9.188;2023-04-24T03:53:01;11.50;99.90
9209;DHT22;4639;48.862;9.188;2023-04-24T03:55:27;11.50;99.90
9209;DHT22;4639;48.862;9.188;2023-04-24T03:57:52;11.60;99.90
9209;DHT22;4639;48.862;9.188;2023-04-24T04:00:18;11.50;99.90
9209;DHT22;4639;48.862;9.188;2023-04-24T04:02:44;11.50;99.90
9209;DHT22;4639;48.862;9.188;2023-04-24T04:05:09;11.50;99.90
9209;DHT22;4639;48.862;9.188;2023-04-24T04:07:35;11.50;99.90
9209;DHT22;4639;48.862;9.188;2023-04-24T04:10:00;11.50;99.90
9209;DHT22;4639;48.862;9.188;2023-04-24T04:12:26;11.50;99.90
9209;DHT22;4639;48.862;9.188;2023-04-24T04:14:51;11.50;99.90
9209;DHT22;4639;48.862;9.188;2023-04-24T04:17:17;11.60;99.90
9209;DHT22;4639;48.862;9.188;2023-04-24T04:19:43;11.60;99.90
9209;DHT22;4639;48.862;9.188;2023-04-24T04:22:09;11.60;99.90
9209;DHT22;4639;48.862;9.188;2023-04-24T04:24:34;11.50;99.90
9209;DHT22;4639;48.862;9.188;2023-04-24T04:27:04;11.40;99.90
9209;DHT22;4639;48.862;9.188;2023-04-24T04:29:30;11.20;99.90
9209;DHT22;4639;48.862;9.188;2023-04-24T04:31:57;11.20;99.90
9209;DHT22;4639;48.862;9.188;2023-04-24T04:34:22;11.30;99.90
9209;DHT22;4639;48.862;9.188;2023-04-24T04:36:48;11.10;99.90
9209;DHT22;4639;48.862;9.188;2023-04-24T04:39:14;11.00;99.90
9209;DHT22;4639;48.862;9.188;2023-04-24T04:41:41;10.80;99.90
9209;DHT22;4639;48.862;9.188;2023-04-24T04:44:07;10.90;99.90
9209;DHT22;4639;48.862;9.188;2023-04-24T04:46:34;10.90;99.90
9209;DHT22;4639;48.862;9.188;2023-04-24T04:49:00;10.80;99.90
9209;DHT22;4639;48.862;9.188;2023-04-24T04:51:26;10.80;99.90
9209;DHT22;4639;48.862;9.188;2023-04-24T04:53:52;10.80;99.90
9209;DHT22;4639;48.862;9.188;2023-04-24T04:56:18;10.70;99.90
9209;DHT22;4639;48.862;9.188;2023-04-24T04:58:44;10.70;99.90
9209;DHT22;4639;48.862;9.188;2023-04-24T05:01:09;10.70;99.90
9209;DHT22;4639;48.862;9.188;2023-04-24T05:03:35;10.70;99.90
9209;DHT22;4639;48.862;9.188;2023-04-24T05:06:01;10.60;99.90
9209;DHT22;4639;48.862;9.188;2023-04-24T05:08:27;10.60;99.90
9209;DHT22;4639;48.862;9.188;2023-04-24T05:10:53;10.70;99.90
9209;DHT22;4639;48.862;9.188;2023-04-24T05:13:19;10.60;99.90
9209;DHT22;4639;48.862;9.188;2023-04-24T05:15:44;10.40;99.90
9209;DHT22;4639;48.862;9.188;2023-04-24T05:18:10;10.60;99.90
9209;DHT22;4639;48.862;9.188;2023-04-24T05:20:35;10.50;99.90
9209;DHT22;4639;48.862;9.188;2023-04-24T05:23:01;10.50;99.90
9209;DHT22;4639;48.862;9.188;2023-04-24T05:25:27;10.50;99.90
9209;DHT22;4639;48.862;9.188;2023-04-24T05:27:52;10.60;99.90
9209;DHT22;4639;48.862;9.188;2023-04-24T05:30:19;10.50;99.90
9209;DHT22;4639;48.862;9.188;2023-04-24T05:32:45;10.60;99.90
9209;DHT22;4639;48.862;9.188;2023-04-24T05:35:11;10.60;99.90
9209;DHT22;4639;48.862;9.188;2023-04-24T05:37:37;10.60;99.90
9209;DHT22;4639;48.862;9.188;2023-04-24T05:40:03;10.60;99.90
9209;DHT22;4639;48.862;9.188;2023-04-24T05:42:31;10.50;99.90
9209;DHT22;4639;48.862;9.188;2023-04-24T05:44:56;10.60;99.90
9209;DHT22;4639;48.862;9.188;2023-04-24T05:47:22;10.60;99.90
9209;DHT22;4639;48.862;9.188;2023-04-24T05:49:48;10.70;99.90
9209;DHT22;4639;48.862;9.188;2023-04-24T05:52:13;10.60;99.90
9209;DHT22;4639;48.862;9.188;2023-04-24T05:54:39;10.40;99.90
9209;DHT22;4639;48.862;9.188;2023-04-24T05:57:05;10.40;99.90
9209;DHT22;4639;48.862;9.188;2023-04-24T05:59:35;10.60;99.90
9209;DHT22;4639;48.862;9.188;2023-04-24T06:02:00;10.70;99.90
9209;DHT22;4639;48.862;9.188;2023-04-24T06:04:26;10.70;99.90
9209;DHT22;4639;48.862;9.188;2023-04-24T06:06:51;10.70;99.90
9209;DHT22;4639;48.862;9.188;2023-04-24T06:09:21;10.80;99.90
9209;DHT22;4639;48.862;9.188;2023-04-24T06:11:47;10.90;99.90
9209;DHT22;4639;48.862;9.188;2023-04-24T06:14:13;10.80;99.90
9209;DHT22;4639;48.862;9.188;2023-04-24T06:16:41;10.80;99.90
9209;DHT22;4639;48.862;9.188;2023-04-24T06:19:07;10.80;99.90
9209;DHT22;4639;48.862;9.188;2023-04-24T06:21:33;10.80;99.90
9209;DHT22;4639;48.862;9.188;2023-04-24T06:24:03;10.70;99.90
9209;DHT22;4639;48.862;9.188;2023-04-24T06:26:30;10.70;99.90
9209;DHT22;4639;48.862;9.188;2023-04-24T06:28:59;10.80;99.90
9209;DHT22;4639;48.862;9.188;2023-04-24T06:31:25;10.90;99.90
9209;DHT22;4639;48.862;9.188;2023-04-24T06:33:51;11.00;99.90
9209;DHT22;4639;48.862;9.188;2023-04-24T06:36:17;11.10;99.90
9209;DHT22;4639;48.862;9.188;2023-04-24T06:38:42;11.30;99.90
9209;DHT22;4639;48.862;9.188;2023-04-24T06:41:08;11.30;99.90
9209;DHT22;4639;48.862;9.188;2023-04-24T06:43:33;11.40;99.90
9209;DHT22;4639;48.862;9.188;2023-04-24T06:46:00;11.30;99.90
9209;DHT22;4639;48.862;9.188;2023-04-24T06:48:26;11.30;99.90
9209;DHT22;4639;48.862;9.188;2023-04-24T06:50:52;11.40;99.90
9209;DHT22;4639;48.862;9.188;2023-04-24T06:53:18;11.30;99.90
9209;DHT22;4639;48.862;9.188;2023-04-24T06:55:43;11.30;99.90
9209;DHT22;4639;48.862;9.188;2023-04-24T06:58:11;11.30;99.90
9209;DHT22;4639;48.862;9.188;2023-04-24T07:00:37;11.40;99.90
9209;DHT22;4639;48.862;9.188;2023-04-24T07:03:03;11.50;99.90
9209;DHT22;4639;48.862;9.188;2023-04-24T07:05:30;11.70;99.90
9209;DHT22;4639;48.862;9.188;2023-04-24T07:07:56;12.00;99.90
9209;DHT22;4639;48.862;9.188;2023-04-24T07:10:24;12.10;99.90
9209;DHT22;4639;48.862;9.188;2023-04-24T07:12:49;12.00;99.90
9209;DHT22;4639;48.862;9.188;2023-04-24T07:15:15;12.30;99.90
9209;DHT22;4639;48.862;9.188;2023-04-24T07:17:41;12.20;99.90
9209;DHT22;4639;48.862;9.188;2023-04-24T07:20:10;12.20;99.90
9209;DHT22;4639;48.862;9.188;2023-04-24T07:22:37;12.00;99.90
9209;DHT22;4639;48.862;9.188;2023-04-24T07:25:03;11.80;99.90
9209;DHT22;4639;48.862;9.188;2023-04-24T07:27:28;11.70;99.90
9209;DHT22;4639;48.862;9.188;2023-04-24T07:29:54;11.80;99.90
9209;DHT22;4639;48.862;9.188;2023-04-24T07:32:20;11.90;99.90
9209;DHT22;4639;48.862;9.188;2023-04-24T07:34:45;11.80;99.90
9209;DHT22;4639;48.862;9.188;2023-04-24T07:37:11;12.10;99.90
9209;DHT22;4639;48.862;9.188;2023-04-24T07:39:37;12.40;99.90
9209;DHT22;4639;48.862;9.188;2023-04-24T07:42:02;12.40;99.90
9209;DHT22;4639;48.862;9.188;2023-04-24T07:44:29;12.40;99.90
9209;DHT22;4639;48.862;9.188;2023-04-24T07:46:55;12.30;99.90
9209;DHT22;4639;48.862;9.188;2023-04-24T07:49:21;12.20;99.90
9209;DHT22;4639;48.862;9.188;2023-04-24T07:51:46;12.10;99.90
9209;DHT22;4639;48.862;9.188;2023-04-24T07:54:12;11.90;99.90
9209;DHT22;4639;48.862;9.188;2023-04-24T07:56:38;11.90;99.90
9209;DHT22;4639;48.862;9.188;2023-04-24T07:59:04;12.00;99.90
9209;DHT22;4639;48.862;9.188;2023-04-24T08:01:30;12.20;99.90
9209;DHT22;4639;48.862;9.188;2023-04-24T08:03:56;12.10;99.90
9209;DHT22;4639;48.862;9.188;2023-04-24T08:06:22;12.00;99.90
9209;DHT22;4639;48.862;9.188;2023-04-24T08:08:47;12.10;99.90
9209;DHT22;4639;48.862;9.188;2023-04-24T08:11:13;12.20;99.90
9209;DHT22;4639;48.862;9.188;2023-04-24T08:13:38;12.20;99.90
9209;DHT22;4639;48.862;9.188;2023-04-24T08:16:04;12.30;99.90
9209;DHT22;4639;48.862;9.188;2023-04-24T08:18:30;12.60;99.90
9209;DHT22;4639;48.862;9.188;2023-04-24T08:20:55;12.80;99.90
9209;DHT22;4639;48.862;9.188;2023-04-24T08:23:26;12.90;99.90
9209;DHT22;4639;48.862;9.188;2023-04-24T08:25:52;12.80;99.90
9209;DHT22;4639;48.862;9.188;2023-04-24T08:28:17;12.60;99.90
9209;DHT22;4639;48.862;9.188;2023-04-24T08:30:45;12.30;99.90
9209;DHT22;4639;48.862;9.188;2023-04-24T08:33:13;12.20;99.90
9209;DHT22;4639;48.862;9.188;2023-04-24T08:35:38;12.10;99.90
9209;DHT22;4639;48.862;9.188;2023-04-24T08:38:05;12.20;99.90
9209;DHT22;4639;48.862;9.188;2023-04-24T08:40:34;12.50;99.90
9209;DHT22;4639;48.862;9.188;2023-04-24T08:43:00;12.70;99.90
9209;DHT22;4639;48.862;9.188;2023-04-24T08:45:26;12.70;99.90
9209;DHT22;4639;48.862;9.188;2023-04-24T08:47:52;12.40;99.90
9209;DHT22;4639;48.862;9.188;2023-04-24T08:50:20;12.40;99.90
9209;DHT22;4639;48.862;9.188;2023-04-24T08:52:48;12.40;99.90
9209;DHT22;4639;48.862;9.188;2023-04-24T08:55:15;12.50;99.90
9209;DHT22;4639;48.862;9.188;2023-04-24T08:57:44;12.40;99.90
9209;DHT22;4639;48.862;9.188;2023-04-24T09:00:11;12.10;99.90
9209;DHT22;4639;48.862;9.188;2023-04-24T09:02:38;11.80;99.90
9209;DHT22;4639;48.862;9.188;2023-04-24T09:05:06;11.90;99.90
9209;DHT22;4639;48.862;9.188;2023-04-24T09:07:35;12.00;99.90
9209;DHT22;4639;48.862;9.188;2023-04-24T09:10:02;12.00;99.90
9209;DHT22;4639;48.862;9.188;2023-04-24T09:12:28;12.00;99.90
9209;DHT22;4639;48.862;9.188;2023-04-24T09:14:54;12.10;99.90
9209;DHT22;4639;48.862;9.188;2023-04-24T09:17:20;12.40;99.90
9209;DHT22;4639;48.862;9.188;2023-04-24T09:19:50;12.50;99.90
9209;DHT22;4639;48.862;9.188;2023-04-24T09:22:15;12.30;99.90
9209;DHT22;4639;48.862;9.188;2023-04-24T09:24:41;12.10;99.90
9209;DHT22;4639;48.862;9.188;2023-04-24T09:27:07;11.90;99.90
9209;DHT22;4639;48.862;9.188;2023-04-24T09:29:32;11.80;99.90
9209;DHT22;4639;48.862;9.188;2023-04-24T09:31:59;11.80;99.90
9209;DHT22;4639;48.862;9.188;2023-04-24T09:34:27;11.70;99.90
9209;DHT22;4639;48.862;9.188;2023-04-24T09:36:54;11.60;99.90
9209;DHT22;4639;48.862;9.188;2023-04-24T09:39:20;11.50;99.90
9209;DHT22;4639;48.862;9.188;2023-04-24T09:41:46;11.60;99.90
9209;DHT22;4639;48.862;9.188;2023-04-24T09:44:16;11.80;99.90
9209;DHT22;4639;48.862;9.188;2023-04-24T09:46:43;12.40;99.90
9209;DHT22;4639;48.862;9.188;2023-04-24T09:49:12;13.10;99.90
9209;DHT22;4639;48.862;9.188;2023-04-24T09:51:38;13.30;99.90
9209;DHT22;4639;48.862;9.188;2023-04-24T09:54:15;13.30;99.90
9209;DHT22;4639;48.862;9.188;2023-04-24T09:56:49;12.90;99.90
9209;DHT22;4639;48.862;9.188;2023-04-24T09:59:16;12.20;99.90
9209;DHT22;4639;48.862;9.188;2023-04-24T10:01:41;12.10;99.90
9209;DHT22;4639;48.862;9.188;2023-04-24T10:04:17;12.20;99.90
9209;DHT22;4639;48.862;9.188;2023-04-24T10:06:43;12.70;99.90
9209;DHT22;4639;48.862;9.188;2023-04-24T10:09:09;13.30;99.90
9209;DHT22;4639;48.862;9.188;2023-04-24T10:11:37;13.40;99.90
9209;DHT22;4639;48.862;9.188;2023-04-24T10:14:04;13.40;99.90
9209;DHT22;4639;48.862;9.188;2023-04-24T10:16:31;13.60;99.90
9209;DHT22;4639;48.862;9.188;2023-04-24T10:18:59;13.80;99.90
9209;DHT22;4639;48.862;9.188;2023-04-24T10:21:25;13.90;99.90
9209;DHT22;4639;48.862;9.188;2023-04-24T10:24:19;13.60;99.90
9209;DHT22;4639;48.862;9.188;2023-04-24T10:26:51;13.00;99.90
9209;DHT22;4639;48.862;9.188;2023-04-24T10:29:18;12.80;99.90
9209;DHT22;4639;48.862;9.188;2023-04-24T10:31:44;12.60;99.90
9209;DHT22;4639;48.862;9.188;2023-04-24T10:34:15;12.40;99.90
9209;DHT22;4639;48.862;9.188;2023-04-24T10:36:46;12.30;99.90
9209;DHT22;4639;48.862;9.188;2023-04-24T10:39:14;12.20;99.90
9209;DHT22;4639;48.862;9.188;2023-04-24T10:41:43;12.20;99.90
9209;DHT22;4639;48.862;9.188;2023-04-24T10:44:10;12.00;99.90
9209;DHT22;4639;48.862;9.188;2023-04-24T10:46:37;12.00;99.90
9209;DHT22;4639;48.862;9.188;2023-04-24T10:49:07;12.00;99.90
9209;DHT22;4639;48.862;9.188;2023-04-24T10:51:51;11.90;99.90
9209;DHT22;4639;48.862;9.188;2023-04-24T10:59:45;11.80;99.90
9209;DHT22;4639;48.862;9.188;2023-04-24T11:02:10;12.10;99.90
9209;DHT22;4639;48.862;9.188;2023-04-24T11:04:36;12.30;99.90
9209;DHT22;4639;48.862;9.188;2023-04-24T11:07:05;12.50;99.90
9209;DHT22;4639;48.862;9.188;2023-04-24T11:09:31;13.10;99.90
9209;DHT22;4639;48.862;9.188;2023-04-24T11:12:06;13.70;99.90
9209;DHT22;4639;48.862;9.188;2023-04-24T11:14:59;13.90;99.90
9209;DHT22;4639;48.862;9.188;2023-04-24T11:20:04;14.40;99.90
9209;DHT22;4639;48.862;9.188;2023-04-24T11:22:34;14.20;99.90
9209;DHT22;4639;48.862;9.188;2023-04-24T11:25:02;14.00;99.90
9209;DHT22;4639;48.862;9.188;2023-04-24T11:27:31;13.70;99.90
9209;DHT22;4639;48.862;9.188;2023-04-24T11:32:42;13.10;99.90
9209;DHT22;4639;48.862;9.188;2023-04-24T11:35:15;12.70;99.90
9209;DHT22;4639;48.862;9.188;2023-04-24T11:37:43;12.80;99.90
9209;DHT22;4639;48.862;9.188;2023-04-24T11:40:11;13.10;99.90
9209;DHT22;4639;48.862;9.188;2023-04-24T11:42:38;13.00;99.90
9209;DHT22;4639;48.862;9.188;2023-04-24T11:45:27;13.00;99.90
9209;DHT22;4639;48.862;9.188;2023-04-24T11:47:53;12.90;99.90
9209;DHT22;4639;48.862;9.188;2023-04-24T11:50:21;12.70;99.90
9209;DHT22;4639;48.862;9.188;2023-04-24T11:52:48;12.60;99.90
9209;DHT22;4639;48.862;9.188;2023-04-24T11:57:43;12.30;99.90
9209;DHT22;4639;48.862;9.188;2023-04-24T12:00:16;12.10;99.90
9209;DHT22;4639;48.862;9.188;2023-04-24T12:02:42;12.10;99.90
9209;DHT22;4639;48.862;9.188;2023-04-24T12:05:08;12.50;99.90
9209;DHT22;4639;48.862;9.188;2023-04-24T12:07:41;12.80;99.90
9209;DHT22;4639;48.862;9.188;2023-04-24T12:10:08;13.10;99.90
9209;DHT22;4639;48.862;9.188;2023-04-24T12:12:34;12.90;99.90
9209;DHT22;4639;48.862;9.188;2023-04-24T12:15:01;12.70;99.90
9209;DHT22;4639;48.862;9.188;2023-04-24T12:17:32;12.60;99.90
9209;DHT22;4639;48.862;9.188;2023-04-24T12:20:04;12.40;99.90
9209;DHT22;4639;48.862;9.188;2023-04-24T12:25:12;12.40;99.90
9209;DHT22;4639;48.862;9.188;2023-04-24T12:27:38;12.40;99.90
9209;DHT22;4639;48.862;9.188;2023-04-24T12:30:05;12.50;99.90
9209;DHT22;4639;48.862;9.188;2023-04-24T12:32:31;12.70;99.90
9209;DHT22;4639;48.862;9.188;2023-04-24T12:34:57;12.60;99.90
9209;DHT22;4639;48.862;9.188;2023-04-24T12:37:31;12.40;99.90
9209;DHT22;4639;48.862;9.188;2023-04-24T12:40:06;12.20;99.90
9209;DHT22;4639;48.862;9.188;2023-04-24T12:42:33;12.20;99.90
9209;DHT22;4639;48.862;9.188;2023-04-24T12:45:04;12.50;99.90
9209;DHT22;4639;48.862;9.188;2023-04-24T12:47:31;12.60;99.90
9209;DHT22;4639;48.862;9.188;2023-04-24T12:49:57;12.80;99.90
9209;DHT22;4639;48.862;9.188;2023-04-24T12:52:24;12.80;99.90
9209;DHT22;4639;48.862;9.188;2023-04-24T12:54:52;12.70;99.90
9209;DHT22;4639;48.862;9.188;2023-04-24T12:57:18;12.50;99.90
9209;DHT22;4639;48.862;9.188;2023-04-24T12:59:44;12.40;99.90
9209;DHT22;4639;48.862;9.188;2023-04-24T13:02:10;12.50;99.90
9209;DHT22;4639;48.862;9.188;2023-04-24T13:04:36;12.30;99.90
9209;DHT22;4639;48.862;9.188;2023-04-24T13:07:02;11.80;99.90
9209;DHT22;4639;48.862;9.188;2023-04-24T13:09:27;11.50;99.90
9209;DHT22;4639;48.862;9.188;2023-04-24T13:11:54;11.70;99.90
9209;DHT22;4639;48.862;9.188;2023-04-24T13:14:19;12.00;99.90
9209;DHT22;4639;48.862;9.188;2023-04-24T13:16:45;12.00;99.90
9209;DHT22;4639;48.862;9.188;2023-04-24T13:19:11;11.90;99.90
9209;DHT22;4639;48.862;9.188;2023-04-24T13:21:36;12.00;99.90
9209;DHT22;4639;48.862;9.188;2023-04-24T13:24:02;12.00;99.90
9209;DHT22;4639;48.862;9.188;2023-04-24T13:26:30;12.10;99.90
9209;DHT22;4639;48.862;9.188;2023-04-24T13:28:55;12.10;99.90
9209;DHT22;4639;48.862;9.188;2023-04-24T13:31:21;12.20;99.90
9209;DHT22;4639;48.862;9.188;2023-04-24T13:33:46;12.30;99.90
9209;DHT22;4639;48.862;9.188;2023-04-24T13:36:12;12.70;99.90
9209;DHT22;4639;48.862;9.188;2023-04-24T13:38:38;12.90;99.90
9209;DHT22;4639;48.862;9.188;2023-04-24T13:41:03;12.80;99.90
9209;DHT22;4639;48.862;9.188;2023-04-24T13:43:29;12.70;99.90
9209;DHT22;4639;48.862;9.188;2023-04-24T13:45:55;12.60;99.90
9209;DHT22;4639;48.862;9.188;2023-04-24T13:48:20;12.30;99.90
9209;DHT22;4639;48.862;9.188;2023-04-24T13:50:46;12.30;99.90
9209;DHT22;4639;48.862;9.188;2023-04-24T13:53:13;12.60;99.90
9209;DHT22;4639;48.862;9.188;2023-04-24T13:55:39;12.60;99.90
9209;DHT22;4639;48.862;9.188;2023-04-24T13:58:05;12.80;99.90
9209;DHT22;4639;48.862;9.188;2023-04-24T14:00:31;12.70;99.90
9209;DHT22;4639;48.862;9.188;2023-04-24T14:02:57;12.30;99.90
9209;DHT22;4639;48.862;9.188;2023-04-24T14:05:22;12.10;99.90
9209;DHT22;4639;48.862;9.188;2023-04-24T14:07:48;12.20;99.90
9209;DHT22;4639;48.862;9.188;2023-04-24T14:10:14;12.10;99.90
9209;DHT22;4639;48.862;9.188;2023-04-24T14:12:40;12.10;99.90
9209;DHT22;4639;48.862;9.188;2023-04-24T14:15:06;12.20;99.90
9209;DHT22;4639;48.862;9.188;2023-04-24T14:17:31;12.30;99.90
9209;DHT22;4639;48.862;9.188;2023-04-24T14:19:57;12.30;99.90
9209;DHT22;4639;48.862;9.188;2023-04-24T14:22:25;12.00;99.90
9209;DHT22;4639;48.862;9.188;2023-04-24T14:24:50;12.10;99.90
9209;DHT22;4639;48.862;9.188;2023-04-24T14:27:16;12.00;99.90
9209;DHT22;4639;48.862;9.188;2023-04-24T14:29:42;12.10;99.90
9209;DHT22;4639;48.862;9.188;2023-04-24T14:32:07;12.50;99.90
9209;DHT22;4639;48.862;9.188;2023-04-24T14:34:34;12.90;99.90
9209;DHT22;4639;48.862;9.188;2023-04-24T14:37:00;12.90;99.90
9209;DHT22;4639;48.862;9.188;2023-04-24T14:39:25;12.90;99.90
9209;DHT22;4639;48.862;9.188;2023-04-24T14:41:51;12.80;99.90
9209;DHT22;4639;48.862;9.188;2023-04-24T14:44:16;12.80;99.90
9209;DHT22;4639;48.862;9.188;2023-04-24T14:46:42;12.80;99.90
9209;DHT22;4639;48.862;9.188;2023-04-24T14:49:08;12.80;99.90
9209;DHT22;4639;48.862;9.188;2023-04-24T14:51:35;12.70;99.90
9209;DHT22;4639;48.862;9.188;2023-04-24T14:54:01;12.60;99.90
9209;DHT22;4639;48.862;9.188;2023-04-24T14:56:26;12.70;99.90
9209;DHT22;4639;48.862;9.188;2023-04-24T14:58:52;12.50;99.90
9209;DHT22;4639;48.862;9.188;2023-04-24T15:01:18;12.60;99.90
9209;DHT22;4639;48.862;9.188;2023-04-24T15:03:44;12.50;99.90
9209;DHT22;4639;48.862;9.188;2023-04-24T15:06:09;12.70;99.90
9209;DHT22;4639;48.862;9.188;2023-04-24T15:08:35;12.90;99.90
9209;DHT22;4639;48.862;9.188;2023-04-24T15:11:01;13.20;99.90
9209;DHT22;4639;48.862;9.188;2023-04-24T15:13:26;13.30;99.90
9209;DHT22;4639;48.862;9.188;2023-04-24T15:15:52;13.30;99.90
9209;DHT22;4639;48.862;9.188;2023-04-24T15:18:17;13.10;99.90
9209;DHT22;4639;48.862;9.188;2023-04-24T15:20:43;13.00;99.90
9209;DHT22;4639;48.862;9.188;2023-04-24T15:23:09;12.80;99.90
9209;DHT22;4639;48.862;9.188;2023-04-24T15:25:35;12.70;99.90
9209;DHT22;4639;48.862;9.188;2023-04-24T15:28:00;12.50;99.90
9209;DHT22;4639;48.862;9.188;2023-04-24T15:30:27;12.40;99.90
9209;DHT22;4639;48.862;9.188;2023-04-24T15:32:52;12.40;99.90
9209;DHT22;4639;48.862;9.188;2023-04-24T15:35:18;12.10;99.90
9209;DHT22;4639;48.862;9.188;2023-04-24T15:37:43;11.70;99.90
9209;DHT22;4639;48.862;9.188;2023-04-24T15:40:09;11.70;99.90
9209;DHT22;4639;48.862;9.188;2023-04-24T15:42:38;11.80;99.90
9209;DHT22;4639;48.862;9.188;2023-04-24T15:45:04;12.00;99.90
9209;DHT22;4639;48.862;9.188;2023-04-24T15:47:31;12.30;99.90
9209;DHT22;4639;48.862;9.188;2023-04-24T15:49:57;12.30;99.90
9209;DHT22;4639;48.862;9.188;2023-04-24T15:52:23;12.30;99.90
9209;DHT22;4639;48.862;9.188;2023-04-24T15:54:48;12.40;99.90
9209;DHT22;4639;48.862;9.188;2023-04-24T15:57:14;12.70;99.90
9209;DHT22;4639;48.862;9.188;2023-04-24T15:59:40;12.90;99.90
9209;DHT22;4639;48.862;9.188;2023-04-24T16:02:11;13.20;99.90
9209;DHT22;4639;48.862;9.188;2023-04-24T16:04:37;13.40;99.90
9209;DHT22;4639;48.862;9.188;2023-04-24T16:07:02;13.50;99.90
9209;DHT22;4639;48.862;9.188;2023-04-24T16:09:28;13.50;99.90
9209;DHT22;4639;48.862;9.188;2023-04-24T16:11:53;13.70;99.90
9209;DHT22;4639;48.862;9.188;2023-04-24T16:14:19;13.90;99.90